Time;durP1;ratioP1;P1;durP2;ratioP2;P2;SDS_P1;SDS_P2;PMS_P1;PMS_P2;Temp;Humidity;BMP_temperature;BMP_pressure;BME280_temperature;BME280_humidity;BME280_pressure;Samples;Min_cycle;Max_cycle;Signal;HPM_P1;HPM_P2
2022/07/26 00:00:28;;;;;;;6.95;1.88;;;;;;;18.16;88.12;93127.69;2080792;28;20021;-78
2022/07/26 00:01:30;;;;;;;5.70;1.80;;;;;;;18.16;88.74;93125.00;2078667;28;20029;-79
2022/07/26 00:02:31;;;;;;;7.30;1.77;;;;;;;18.17;87.51;93121.81;2085650;28;20470;-78
2022/07/26 00:03:32;;;;;;;4.35;1.98;;;;;;;18.14;89.23;93122.75;2089808;28;20025;-78
2022/07/26 00:04:32;;;;;;;5.22;1.67;;;;;;;18.18;88.70;93125.28;2073222;28;20088;-78
2022/07/26 00:05:37;;;;;;;5.93;1.92;;;;;;;18.25;88.33;93125.66;2085176;28;20021;-78
2022/07/26 00:06:38;;;;;;;4.93;1.90;;;;;;;18.32;87.36;93125.28;2090104;28;20067;-78
2022/07/26 00:07:39;;;;;;;5.07;1.75;;;;;;;18.40;87.04;93124.94;2089266;28;20404;-78
2022/07/26 00:08:40;;;;;;;8.35;1.80;;;;;;;18.39;88.40;93124.16;2081416;28;20200;-79
2022/07/26 00:09:42;;;;;;;6.30;2.45;;;;;;;18.38;88.04;93128.84;2088040;28;20071;-79
2022/07/26 00:10:47;;;;;;;6.93;2.13;;;;;;;18.37;90.22;93127.34;2097605;28;20467;-78
2022/07/26 00:11:48;;;;;;;5.38;2.00;;;;;;;18.34;89.98;93122.13;2090120;28;20075;-78
2022/07/26 00:12:49;;;;;;;8.10;1.83;;;;;;;18.38;88.37;93125.38;2081164;28;20030;-79
2022/07/26 00:13:50;;;;;;;6.90;2.13;;;;;;;18.36;88.45;93133.25;2078824;28;20053;-78
2022/07/26 00:14:52;;;;;;;6.22;2.00;;;;;;;18.44;89.75;93136.31;2088302;28;20139;-78
2022/07/26 00:15:53;;;;;;;5.15;1.85;;;;;;;18.43;89.93;93140.97;2087550;28;20036;-78
2022/07/26 00:16:54;;;;;;;3.63;1.38;;;;;;;18.42;89.78;93136.03;2073200;28;20437;-78
2022/07/26 00:17:55;;;;;;;4.68;1.98;;;;;;;18.46;88.30;93131.94;2073131;28;20450;-79
2022/07/26 00:18:56;;;;;;;5.22;1.83;;;;;;;18.46;88.12;93131.19;2089433;28;20024;-78
2022/07/26 00:19:57;;;;;;;7.65;1.88;;;;;;;18.51;88.46;93130.53;2089522;28;20025;-79
2022/07/26 00:20:58;;;;;;;4.32;1.42;;;;;;;18.56;87.53;93135.28;2089304;28;20409;-78
2022/07/26 00:23:18;;;;;;;4.05;1.70;;;;;;;18.57;91.98;93128.69;2089082;28;20024;-79
2022/07/26 00:24:19;;;;;;;6.68;1.75;;;;;;;18.61;87.87;93140.81;2089503;28;20055;-79
2022/07/26 00:25:21;;;;;;;7.78;1.90;;;;;;;18.68;88.06;93136.25;2089461;28;20470;-79
2022/07/26 00:26:22;;;;;;;2.83;1.70;;;;;;;18.78;88.83;93132.25;2087976;28;20037;-78
2022/07/26 00:27:23;;;;;;;3.38;1.55;;;;;;;18.91;87.88;93131.97;2075952;28;20013;-79
2022/07/26 00:28:24;;;;;;;7.28;2.75;;;;;;;18.93;87.67;93134.97;2080652;28;20382;-78
2022/07/26 00:29:24;;;;;;;5.10;1.70;;;;;;;18.87;87.30;93126.72;2092981;28;20020;-78
2022/07/26 00:30:26;;;;;;;2.47;1.30;;;;;;;18.91;87.56;93127.28;2081837;28;20087;-78
2022/07/26 00:31:27;;;;;;;7.10;2.10;;;;;;;18.83;88.54;93129.66;2081424;28;20040;-78
2022/07/26 00:32:27;;;;;;;3.78;1.92;;;;;;;18.89;88.42;93127.03;2081052;28;20052;-78
2022/07/26 00:33:29;;;;;;;3.80;1.70;;;;;;;18.75;88.49;93131.22;2081288;28;20021;-80
2022/07/26 00:34:30;;;;;;;4.15;1.80;;;;;;;18.82;88.54;93127.38;2080474;28;20029;-78
2022/07/26 00:35:31;;;;;;;6.63;1.70;;;;;;;18.94;87.93;93122.91;2089133;28;20485;-78
2022/07/26 00:36:32;;;;;;;3.38;1.60;;;;;;;18.92;88.83;93122.59;2086245;28;20038;-78
2022/07/26 00:37:33;;;;;;;7.72;1.50;;;;;;;18.83;89.17;93126.16;2077396;28;20021;-78
2022/07/26 00:38:34;;;;;;;4.47;1.70;;;;;;;18.81;89.48;93123.94;2073083;28;20033;-78
2022/07/26 00:39:35;;;;;;;4.35;1.60;;;;;;;18.92;88.67;93123.38;2074952;28;20077;-79
2022/07/26 00:40:36;;;;;;;5.68;1.60;;;;;;;18.77;90.10;93125.34;2081000;28;20029;-78
2022/07/26 00:41:37;;;;;;;6.70;1.92;;;;;;;18.81;89.93;93123.19;2072897;28;20109;-79
2022/07/26 00:42:38;;;;;;;6.05;1.95;;;;;;;18.75;90.52;93127.78;2074120;28;20079;-79
2022/07/26 00:44:00;;;;;;;8.77;1.70;;;;;;;18.81;90.13;93131.31;2081102;28;20096;-79
2022/07/26 00:45:02;;;;;;;9.35;2.05;;;;;;;18.82;89.82;93132.81;2091777;28;20025;-79
2022/07/26 00:46:03;;;;;;;4.53;1.50;;;;;;;18.84;89.62;93123.00;2087232;28;20511;-79
2022/07/26 00:47:04;;;;;;;4.60;1.50;;;;;;;18.82;90.44;93125.41;2080999;28;20029;-78
2022/07/26 00:48:05;;;;;;;4.85;1.95;;;;;;;18.82;89.86;93127.38;2073059;28;20028;-79
2022/07/26 00:49:06;;;;;;;2.72;1.55;;;;;;;18.75;90.88;93131.22;2076078;28;20051;-78
2022/07/26 00:50:11;;;;;;;4.38;1.42;;;;;;;18.67;91.98;93140.16;2081001;28;20037;-79
2022/07/26 00:51:13;;;;;;;5.40;1.70;;;;;;;18.60;94.12;93125.03;2079451;28;20648;-79
2022/07/26 00:52:14;;;;;;;4.78;1.38;;;;;;;18.82;90.90;93135.50;2088467;28;20075;-79
2022/07/26 00:53:18;;;;;;;2.72;1.52;;;;;;;18.80;90.75;93133.28;2081181;28;20112;-78
2022/07/26 00:54:19;;;;;;;4.28;1.52;;;;;;;18.81;91.69;93136.72;2080797;28;20033;-79
2022/07/26 00:55:20;;;;;;;4.03;1.40;;;;;;;18.90;90.53;93136.63;2091072;28;20048;-79
2022/07/26 00:56:22;;;;;;;1.60;1.30;;;;;;;19.11;88.88;93146.31;2081871;28;20579;-79
2022/07/26 00:57:23;;;;;;;3.45;1.50;;;;;;;19.21;88.31;93143.50;2086025;28;20025;-78
2022/07/26 00:58:24;;;;;;;7.78;1.70;;;;;;;19.01;89.99;93131.41;2082569;28;20097;-78
2022/07/26 00:59:25;;;;;;;3.42;1.48;;;;;;;18.93;91.35;93138.41;2077428;28;20036;-78
2022/07/26 01:00:26;;;;;;;7.70;1.60;;;;;;;18.79;94.05;93139.91;2073346;28;20109;-79
2022/07/26 01:01:28;;;;;;;3.70;1.52;;;;;;;18.71;96.55;93136.09;2087071;28;20017;-79
2022/07/26 01:02:29;;;;;;;3.55;1.52;;;;;;;18.59;99.19;93140.53;2091502;28;20028;-79
2022/07/26 01:03:30;;;;;;;4.85;1.45;;;;;;;18.61;100.00;93138.13;2089965;28;20108;-79
2022/07/26 01:04:32;;;;;;;3.20;1.63;;;;;;;18.44;100.00;93141.72;2080905;28;20108;-79
2022/07/26 01:05:34;;;;;;;5.13;1.70;;;;;;;18.38;100.00;93139.66;2072562;28;20026;-79
2022/07/26 01:06:35;;;;;;;3.95;1.77;;;;;;;18.34;100.00;93139.09;2080550;28;20021;-79
2022/07/26 01:07:37;;;;;;;3.42;1.50;;;;;;;18.21;100.00;93133.19;2089027;28;20025;-80
2022/07/26 01:08:38;;;;;;;3.58;1.40;;;;;;;18.12;100.00;93136.72;2073209;28;20022;-79
2022/07/26 01:09:39;;;;;;;4.63;1.90;;;;;;;18.17;100.00;93138.03;2080768;28;20053;-79
2022/07/26 01:10:42;;;;;;;3.90;1.70;;;;;;;18.14;100.00;93133.56;2087225;28;20030;-79
2022/07/26 01:11:44;;;;;;;4.75;1.70;;;;;;;18.11;100.00;93134.50;2081361;28;20029;-79
2022/07/26 01:12:45;;;;;;;7.50;1.52;;;;;;;18.08;100.00;93132.72;2081024;28;20027;-79
2022/07/26 01:13:48;;;;;;;3.17;1.67;;;;;;;17.95;100.00;93138.38;2072711;28;20025;-79
2022/07/26 01:14:49;;;;;;;2.67;1.50;;;;;;;17.75;100.00;93132.81;2076303;28;20046;-79
2022/07/26 01:15:50;;;;;;;5.55;1.63;;;;;;;17.73;100.00;93135.19;2084804;28;20517;-79
2022/07/26 01:16:51;;;;;;;8.60;2.00;;;;;;;17.78;100.00;93129.16;2089245;28;20025;-79
2022/07/26 01:17:52;;;;;;;2.63;1.33;;;;;;;17.55;100.00;93128.69;2088926;28;20020;-79
2022/07/26 01:18:53;;;;;;;3.78;1.60;;;;;;;17.49;100.00;93127.09;2067024;28;20022;-79
2022/07/26 01:19:54;;;;;;;6.18;1.73;;;;;;;17.46;100.00;93126.03;2072582;28;20133;-79
2022/07/26 01:20:59;;;;;;;3.95;1.40;;;;;;;17.28;100.00;93132.28;2078901;28;20116;-79
2022/07/26 01:22:00;;;;;;;5.03;1.95;;;;;;;17.36;100.00;93138.13;2089850;28;20021;-79
2022/07/26 01:23:02;;;;;;;4.53;1.80;;;;;;;17.42;100.00;93136.28;2086526;28;20516;-79
2022/07/26 01:24:03;;;;;;;3.60;1.60;;;;;;;17.57;100.00;93139.81;2085468;28;20029;-79
2022/07/26 01:25:04;;;;;;;5.47;1.40;;;;;;;17.64;100.00;93138.69;2097234;28;20029;-79
2022/07/26 01:26:05;;;;;;;4.45;1.88;;;;;;;17.54;100.00;93129.91;2086668;28;20511;-79
2022/07/26 01:27:06;;;;;;;8.13;1.83;;;;;;;17.52;100.00;93126.94;2084635;28;20025;-79
2022/07/26 01:28:07;;;;;;;2.53;1.50;;;;;;;17.50;100.00;93133.97;2079965;28;20057;-78
2022/07/26 01:29:09;;;;;;;4.00;1.40;;;;;;;17.58;100.00;93133.19;2077584;28;20021;-79
2022/07/26 01:30:11;;;;;;;4.82;1.60;;;;;;;17.65;100.00;93129.41;2087468;28;20051;-79
2022/07/26 01:31:12;;;;;;;5.97;1.70;;;;;;;17.60;100.00;93124.59;2080273;28;20493;-79
2022/07/26 01:32:13;;;;;;;3.45;1.52;;;;;;;17.62;100.00;93131.06;2097177;28;20017;-79
2022/07/26 01:33:14;;;;;;;2.10;1.38;;;;;;;17.81;100.00;93129.00;2089026;28;20051;-79
2022/07/26 01:34:15;;;;;;;5.65;1.52;;;;;;;17.86;100.00;93135.72;2080596;28;20473;-79
2022/07/26 01:35:16;;;;;;;2.78;1.20;;;;;;;17.76;100.00;93140.47;2080582;28;20033;-79
2022/07/26 01:36:18;;;;;;;2.38;1.27;;;;;;;17.79;100.00;93142.25;2072401;28;20026;-79
2022/07/26 01:37:19;;;;;;;2.28;1.45;;;;;;;17.78;100.00;93140.75;2072980;28;20049;-79
2022/07/26 01:38:20;;;;;;;2.38;1.45;;;;;;;17.77;100.00;93141.94;2077314;28;20028;-78
2022/07/26 01:39:21;;;;;;;2.13;1.17;;;;;;;17.79;100.00;93146.91;2072506;28;20112;-78
2022/07/26 01:40:22;;;;;;;6.15;1.20;;;;;;;17.96;99.11;93144.53;2080600;28;20032;-79
2022/07/26 01:41:23;;;;;;;1.35;0.90;;;;;;;18.33;95.90;93144.97;2080761;28;20025;-79
2022/07/26 01:42:24;;;;;;;1.10;1.00;;;;;;;18.21;95.78;93144.03;2088717;28;20028;-78
2022/07/26 01:43:25;;;;;;;4.93;1.10;;;;;;;18.20;96.34;93149.91;2089122;28;20047;-79
2022/07/26 01:44:26;;;;;;;4.53;1.30;;;;;;;18.02;100.00;93142.69;2091345;28;20107;-78
2022/07/26 01:45:27;;;;;;;3.60;1.40;;;;;;;17.97;100.00;93140.63;2073009;28;20022;-78
2022/07/26 01:46:28;;;;;;;2.72;1.05;;;;;;;18.11;95.96;93143.34;2070258;28;20030;-79
2022/07/26 01:47:29;;;;;;;1.75;1.10;;;;;;;17.98;96.54;93140.16;2085371;28;20504;-78
2022/07/26 01:48:30;;;;;;;1.73;1.20;;;;;;;17.86;99.28;93139.19;2097121;28;20021;-78
2022/07/26 01:49:31;;;;;;;4.03;1.30;;;;;;;17.85;100.00;93131.53;2080346;28;20389;-79
2022/07/26 01:50:32;;;;;;;3.88;1.45;;;;;;;17.77;98.46;93133.09;2074003;28;20069;-79
2022/07/26 01:51:34;;;;;;;3.13;1.10;;;;;;;17.86;97.15;93131.06;2080630;28;20018;-78
2022/07/26 01:52:36;;;;;;;2.13;1.08;;;;;;;17.93;97.36;93135.38;2072939;28;20128;-78
2022/07/26 01:53:37;;;;;;;1.27;1.17;;;;;;;17.89;98.20;93131.38;2084079;28;20021;-79
2022/07/26 01:54:38;;;;;;;4.22;1.13;;;;;;;17.86;98.20;93130.31;2071890;28;20026;-79
2022/07/26 01:55:39;;;;;;;1.98;1.10;;;;;;;17.70;100.00;93128.75;2078060;28;20037;-79
2022/07/26 01:56:40;;;;;;;2.63;1.08;;;;;;;17.71;100.00;93134.91;2086303;28;20032;-79
2022/07/26 01:57:43;;;;;;;1.92;1.35;;;;;;;17.84;98.10;93135.44;2080460;28;20466;-78
2022/07/26 01:58:44;;;;;;;1.67;1.30;;;;;;;17.82;98.53;93135.16;2072301;28;20149;-79
2022/07/26 01:59:45;;;;;;;5.32;1.55;;;;;;;17.80;97.29;93134.88;2088779;28;20083;-79
2022/07/26 02:00:47;;;;;;;2.97;1.05;;;;;;;17.66;100.00;93130.88;2075693;28;20040;-78
2022/07/26 02:01:48;;;;;;;1.50;1.15;;;;;;;17.66;99.49;93130.16;2080765;28;20029;-78
2022/07/26 02:02:49;;;;;;;3.10;1.10;;;;;;;17.77;97.81;93131.13;2076031;28;20577;-78
2022/07/26 02:03:50;;;;;;;1.77;1.50;;;;;;;17.62;100.00;93125.66;2080396;28;20040;-79
2022/07/26 02:04:57;;;;;;;3.13;1.38;;;;;;;17.80;97.65;93130.22;2080644;28;20112;-78
2022/07/26 02:06:01;;;;;;;2.92;1.58;;;;;;;17.73;98.25;93122.41;2086484;28;20070;-78
2022/07/26 02:07:02;;;;;;;4.28;1.38;;;;;;;17.76;97.66;93126.19;2092470;28;20082;-78
2022/07/26 02:08:03;;;;;;;2.97;1.20;;;;;;;17.72;99.36;93129.03;2083222;28;20120;-78
2022/07/26 02:09:04;;;;;;;2.65;1.30;;;;;;;17.81;97.41;93125.56;2083533;28;20067;-78
2022/07/26 02:10:06;;;;;;;4.53;1.30;;;;;;;17.75;98.50;93133.56;2075336;28;20160;-79
2022/07/26 02:11:07;;;;;;;2.05;1.20;;;;;;;17.77;96.87;93130.38;2088480;28;20476;-78
2022/07/26 02:12:08;;;;;;;2.42;1.35;;;;;;;17.77;98.43;93124.97;2096988;28;20031;-78
2022/07/26 02:14:33;;;;;;;2.00;1.48;;;;;;;17.82;96.53;93127.03;2143714;27;20114;-78
2022/07/26 02:15:34;;;;;;;3.35;1.13;;;;;;;17.80;96.51;93124.06;2129562;27;20502;-79
2022/07/26 02:16:35;;;;;;;1.67;1.02;;;;;;;17.81;96.98;93123.59;2121159;27;20026;-78
2022/07/26 02:17:36;;;;;;;3.13;1.40;;;;;;;17.73;100.00;93130.53;2121197;27;20019;-79
2022/07/26 02:18:37;;;;;;;1.88;1.50;;;;;;;17.68;98.83;93131.16;2103431;28;20027;-78
2022/07/26 02:19:38;;;;;;;1.33;1.05;;;;;;;17.76;97.45;93126.94;2103658;28;20142;-79
2022/07/26 02:20:39;;;;;;;1.30;1.20;;;;;;;17.83;96.46;93132.00;2106474;28;20028;-79
2022/07/26 02:21:40;;;;;;;2.90;1.15;;;;;;;17.67;98.10;93131.63;2116737;27;20027;-78
2022/07/26 02:22:41;;;;;;;2.90;1.30;;;;;;;17.72;98.39;93131.00;2129583;27;20031;-79
2022/07/26 02:23:41;;;;;;;4.20;1.40;;;;;;;17.74;97.34;93126.66;2120987;28;20024;-79
2022/07/26 02:24:42;;;;;;;2.17;1.42;;;;;;;17.70;98.31;93128.75;2099068;28;20031;-78
2022/07/26 02:25:43;;;;;;;2.55;1.20;;;;;;;17.69;98.10;93126.50;2113856;27;20011;-79
2022/07/26 02:26:51;;;;;;;3.30;1.35;;;;;;;17.67;99.61;93132.38;2115376;27;20173;-78
2022/07/26 02:27:52;;;;;;;2.55;1.50;;;;;;;17.56;99.25;93124.81;2120766;27;20110;-79
2022/07/26 02:28:53;;;;;;;1.10;1.05;;;;;;;17.54;100.00;93127.19;2129131;27;20019;-79
2022/07/26 02:29:54;;;;;;;2.95;1.50;;;;;;;17.55;99.36;93125.97;2128861;27;20643;-79
2022/07/26 02:30:55;;;;;;;5.20;1.40;;;;;;;17.43;100.00;93128.91;2121007;27;20023;-79
2022/07/26 02:31:56;;;;;;;1.35;1.20;;;;;;;17.59;99.14;93129.25;2112503;28;20024;-79
2022/07/26 02:32:57;;;;;;;1.73;1.30;;;;;;;17.60;99.63;93130.00;2110299;28;20069;-79
2022/07/26 02:33:58;;;;;;;3.17;1.67;;;;;;;17.60;99.48;93127.31;2106864;28;20032;-79
2022/07/26 02:34:59;;;;;;;2.22;1.30;;;;;;;17.50;99.83;93125.88;2104118;28;20024;-79
2022/07/26 02:36:00;;;;;;;2.30;1.40;;;;;;;17.51;100.00;93127.38;2110413;27;20027;-79
2022/07/26 02:37:01;;;;;;;2.53;1.23;;;;;;;17.47;100.00;93122.16;2120801;27;20443;-79
2022/07/26 02:38:05;;;;;;;2.40;1.20;;;;;;;17.34;100.00;93127.03;2112739;28;20023;-79
2022/07/26 02:39:06;;;;;;;1.80;1.23;;;;;;;17.27;100.00;93128.09;2109642;28;20025;-79
2022/07/26 02:40:08;;;;;;;3.95;1.60;;;;;;;17.24;100.00;93129.00;2116611;28;20081;-79
2022/07/26 02:41:09;;;;;;;1.63;1.25;;;;;;;17.17;100.00;93137.47;2127681;27;20031;-79
2022/07/26 02:42:10;;;;;;;3.03;1.38;;;;;;;17.33;100.00;93128.97;2128056;27;20023;-79
2022/07/26 02:43:11;;;;;;;1.50;1.30;;;;;;;17.26;100.00;93126.63;2129467;27;20395;-79
2022/07/26 02:44:12;;;;;;;1.50;1.40;;;;;;;17.25;100.00;93127.06;2120840;27;20399;-79
2022/07/26 02:45:13;;;;;;;3.95;1.30;;;;;;;17.19;100.00;93128.91;2129053;27;20022;-79
2022/07/26 02:46:14;;;;;;;5.15;1.50;;;;;;;17.05;100.00;93122.94;2120807;28;20483;-79
2022/07/26 02:47:15;;;;;;;2.88;1.73;;;;;;;17.13;100.00;93123.38;2115097;27;20015;-79
2022/07/26 02:48:15;;;;;;;2.30;1.50;;;;;;;17.12;100.00;93132.69;2129436;27;20019;-79
2022/07/26 02:49:17;;;;;;;3.38;2.05;;;;;;;17.09;100.00;93130.91;2119301;27;20019;-79
2022/07/26 02:50:20;;;;;;;3.70;1.40;;;;;;;17.22;100.00;93123.31;2112436;28;20027;-79
2022/07/26 02:51:21;;;;;;;2.65;1.42;;;;;;;17.08;100.00;93124.00;2106818;28;20031;-79
2022/07/26 02:52:22;;;;;;;2.22;1.52;;;;;;;17.10;100.00;93126.97;2122367;27;20594;-79
2022/07/26 02:53:23;;;;;;;2.05;1.50;;;;;;;17.11;100.00;93126.50;2120809;28;20068;-79
2022/07/26 02:54:24;;;;;;;4.70;1.30;;;;;;;17.05;100.00;93127.59;2120626;27;20064;-79
2022/07/26 02:55:25;;;;;;;2.40;1.48;;;;;;;17.07;100.00;93125.19;2126096;27;20023;-79
2022/07/26 02:56:28;;;;;;;1.98;1.55;;;;;;;16.96;100.00;93120.28;2115257;28;20395;-79
2022/07/26 02:57:29;;;;;;;3.28;1.48;;;;;;;17.00;100.00;93123.56;2108706;28;20035;-79
2022/07/26 02:58:30;;;;;;;1.70;1.48;;;;;;;17.02;100.00;93125.81;2116534;27;20051;-79
2022/07/26 02:59:30;;;;;;;2.58;1.30;;;;;;;17.06;100.00;93115.59;2120740;28;20027;-79
2022/07/26 03:00:31;;;;;;;2.30;1.50;;;;;;;17.06;100.00;93118.28;2103821;28;20020;-79
2022/07/26 03:01:34;;;;;;;1.52;1.30;;;;;;;17.07;100.00;93120.53;2111114;28;20077;-78
2022/07/26 03:02:35;;;;;;;2.00;1.80;;;;;;;17.03;100.00;93122.66;2109350;27;20028;-79
2022/07/26 03:03:36;;;;;;;1.80;1.55;;;;;;;16.95;100.00;93118.81;2120793;28;20045;-79
2022/07/26 03:04:37;;;;;;;4.93;1.98;;;;;;;16.98;100.00;93125.97;2112268;28;20041;-79
2022/07/26 03:05:39;;;;;;;2.45;1.52;;;;;;;16.97;100.00;93118.34;2120462;27;20031;-79
2022/07/26 03:06:40;;;;;;;2.65;1.40;;;;;;;17.20;100.00;93114.91;2120661;28;20028;-79
2022/07/26 03:07:41;;;;;;;2.30;1.58;;;;;;;17.14;100.00;93116.00;2112375;28;20415;-79
2022/07/26 03:08:42;;;;;;;3.33;1.70;;;;;;;17.03;100.00;93117.28;2116749;27;20065;-79
2022/07/26 03:09:43;;;;;;;2.55;1.65;;;;;;;17.01;100.00;93114.25;2120850;28;20495;-79
2022/07/26 03:10:44;;;;;;;1.95;1.50;;;;;;;17.01;100.00;93114.25;2120451;27;20398;-79
2022/07/26 03:11:45;;;;;;;4.18;1.60;;;;;;;16.97;100.00;93110.97;2120585;28;20023;-79
2022/07/26 03:12:46;;;;;;;2.72;1.48;;;;;;;16.98;100.00;93112.47;2112186;28;20459;-79
2022/07/26 03:13:47;;;;;;;2.35;1.50;;;;;;;17.02;100.00;93115.00;2103595;28;20024;-79
2022/07/26 03:14:48;;;;;;;3.53;1.60;;;;;;;16.94;100.00;93111.13;2112188;28;20093;-79
2022/07/26 03:15:49;;;;;;;3.30;1.50;;;;;;;16.87;100.00;93112.22;2109831;28;20934;-79
2022/07/26 03:16:50;;;;;;;2.25;1.63;;;;;;;16.81;100.00;93122.13;2110501;27;20020;-79
2022/07/26 03:17:51;;;;;;;2.53;1.63;;;;;;;16.75;100.00;93113.16;2107524;28;20024;-79
2022/07/26 03:18:52;;;;;;;4.78;1.65;;;;;;;16.74;100.00;93112.41;2102383;28;20020;-79
2022/07/26 03:19:53;;;;;;;2.92;1.38;;;;;;;16.72;100.00;93114.81;2112180;28;20028;-79
2022/07/26 03:20:54;;;;;;;2.30;1.90;;;;;;;16.78;100.00;93110.31;2120404;28;20056;-79
2022/07/26 03:21:55;;;;;;;3.28;1.40;;;;;;;16.74;100.00;93119.78;2117461;27;20027;-79
2022/07/26 03:22:56;;;;;;;4.85;1.50;;;;;;;16.82;100.00;93124.41;2120605;27;20548;-79
2022/07/26 03:23:57;;;;;;;3.45;1.50;;;;;;;16.89;100.00;93131.41;2111344;28;20012;-79
2022/07/26 03:24:58;;;;;;;5.38;1.90;;;;;;;16.81;100.00;93124.81;2103755;28;20055;-79
2022/07/26 03:26:00;;;;;;;3.63;1.40;;;;;;;16.83;100.00;93133.22;2117446;27;20035;-79
2022/07/26 03:27:01;;;;;;;2.05;1.73;;;;;;;16.69;100.00;93137.31;2123422;27;20491;-79
2022/07/26 03:28:02;;;;;;;3.63;1.45;;;;;;;16.69;100.00;93133.84;2113621;28;20031;-79
2022/07/26 03:29:03;;;;;;;2.70;1.83;;;;;;;16.71;100.00;93128.75;2098064;28;20044;-79
2022/07/26 03:30:06;;;;;;;3.83;1.77;;;;;;;16.65;100.00;93135.97;2105740;28;20512;-78
2022/07/26 03:31:07;;;;;;;2.63;1.25;;;;;;;16.80;100.00;93131.44;2123434;27;20106;-78
2022/07/26 03:32:08;;;;;;;4.43;1.60;;;;;;;16.80;100.00;93136.84;2123381;27;20143;-78
2022/07/26 03:33:09;;;;;;;2.58;1.50;;;;;;;16.63;100.00;93129.03;2114153;27;20015;-79
2022/07/26 03:34:10;;;;;;;1.75;1.40;;;;;;;16.61;100.00;93130.72;2106365;28;20020;-79
2022/07/26 03:35:11;;;;;;;1.55;1.40;;;;;;;16.51;100.00;93132.69;2106518;28;20507;-79
2022/07/26 03:36:12;;;;;;;2.30;1.70;;;;;;;16.48;100.00;93122.81;2100710;28;20073;-79
2022/07/26 03:37:13;;;;;;;2.47;1.60;;;;;;;16.42;100.00;93130.03;2106343;28;20078;-79
2022/07/26 03:38:14;;;;;;;4.15;1.70;;;;;;;16.40;100.00;93128.97;2123383;27;20188;-79
2022/07/26 03:39:15;;;;;;;2.40;1.73;;;;;;;16.40;100.00;93131.66;2107005;28;20149;-79
2022/07/26 03:40:17;;;;;;;2.65;1.85;;;;;;;16.31;100.00;93135.13;2097948;28;20043;-79
2022/07/26 03:41:18;;;;;;;3.75;1.95;;;;;;;16.29;100.00;93135.56;2092076;28;20021;-79
2022/07/26 03:42:19;;;;;;;3.47;1.48;;;;;;;16.39;100.00;93143.66;2105642;28;20036;-79
2022/07/26 03:43:20;;;;;;;2.45;1.58;;;;;;;16.36;100.00;93134.50;2106320;28;20497;-79
2022/07/26 03:44:21;;;;;;;2.20;1.55;;;;;;;16.42;100.00;93134.63;2104770;28;20031;-79
2022/07/26 03:45:22;;;;;;;3.67;1.42;;;;;;;16.43;100.00;93136.91;2108893;28;20460;-79
2022/07/26 03:46:22;;;;;;;1.75;1.60;;;;;;;16.41;100.00;93138.53;2113363;28;20043;-79
2022/07/26 03:47:23;;;;;;;2.95;1.90;;;;;;;16.37;100.00;93133.31;2114853;28;20019;-79
2022/07/26 03:48:24;;;;;;;4.50;1.42;;;;;;;16.39;100.00;93127.47;2111538;28;20027;-79
2022/07/26 03:49:26;;;;;;;5.55;1.90;;;;;;;16.39;100.00;93130.16;2119552;27;20130;-79
2022/07/26 03:50:27;;;;;;;8.00;1.60;;;;;;;16.35;100.00;93135.72;2123159;27;20495;-79
2022/07/26 03:51:28;;;;;;;1.60;1.48;;;;;;;16.15;100.00;93138.13;2114822;27;20057;-79
2022/07/26 03:52:29;;;;;;;3.33;1.92;;;;;;;16.30;100.00;93136.31;2105548;28;20024;-79
2022/07/26 03:53:30;;;;;;;1.83;1.52;;;;;;;16.27;100.00;93143.34;2106537;28;20511;-79
2022/07/26 03:54:31;;;;;;;3.53;1.50;;;;;;;16.34;100.00;93140.38;2111687;28;20487;-79
2022/07/26 03:56:51;;;;;;;2.53;1.38;;;;;;;16.54;100.00;93142.56;2114183;27;20080;-78
2022/07/26 03:57:52;;;;;;;2.47;1.58;;;;;;;16.51;100.00;93142.75;2123059;27;20088;-78
2022/07/26 03:58:54;;;;;;;3.17;2.00;;;;;;;16.48;100.00;93140.94;2114525;28;20064;-79
2022/07/26 04:00:09;;;;;;;2.15;1.80;;;;;;;16.51;100.00;93137.34;2121813;27;20074;-78
2022/07/26 04:01:10;;;;;;;4.28;1.65;;;;;;;16.42;100.00;93146.22;2106074;28;20024;-78
2022/07/26 04:02:11;;;;;;;2.50;1.60;;;;;;;16.48;100.00;93147.09;2105980;28;20056;-78
2022/07/26 04:03:12;;;;;;;4.25;1.77;;;;;;;16.77;100.00;93138.50;2106149;28;20047;-79
2022/07/26 04:04:16;;;;;;;3.17;1.75;;;;;;;16.65;100.00;93142.09;2106121;28;20024;-79
2022/07/26 04:05:17;;;;;;;4.95;1.98;;;;;;;16.80;100.00;93144.94;2123091;27;20483;-79
2022/07/26 04:06:18;;;;;;;5.85;2.33;;;;;;;16.90;100.00;93143.72;2110142;28;20061;-79
2022/07/26 04:07:19;;;;;;;3.25;1.80;;;;;;;16.78;100.00;93142.69;2097947;28;20496;-78
2022/07/26 04:08:20;;;;;;;3.80;1.60;;;;;;;16.74;100.00;93144.81;2106296;28;20051;-79
2022/07/26 04:09:22;;;;;;;2.47;1.67;;;;;;;16.75;100.00;93137.47;2122956;27;20034;-78
2022/07/26 04:10:23;;;;;;;4.03;1.67;;;;;;;16.72;100.00;93138.31;2122896;27;20023;-79
2022/07/26 04:11:24;;;;;;;5.05;2.00;;;;;;;16.73;100.00;93137.91;2110209;28;20078;-79
2022/07/26 04:12:25;;;;;;;3.45;2.05;;;;;;;16.72;100.00;93132.94;2106120;28;20607;-79
2022/07/26 04:13:26;;;;;;;2.72;1.80;;;;;;;16.77;100.00;93132.34;2114652;28;20741;-79
2022/07/26 04:14:27;;;;;;;4.45;1.90;;;;;;;16.84;100.00;93135.47;2105798;28;20095;-79
2022/07/26 04:15:28;;;;;;;5.35;2.10;;;;;;;16.73;100.00;93132.53;2111432;28;20669;-79
2022/07/26 04:16:30;;;;;;;2.17;1.67;;;;;;;16.73;100.00;93124.44;2106067;28;20028;-79
2022/07/26 04:17:39;;;;;;;6.20;1.90;;;;;;;16.69;100.00;93131.91;2114235;28;20078;-79
2022/07/26 04:18:41;;;;;;;3.95;1.67;;;;;;;16.72;100.00;93138.31;2114642;28;20028;-79
2022/07/26 04:19:42;;;;;;;2.63;1.52;;;;;;;16.78;100.00;93136.56;2102876;28;20028;-79
2022/07/26 04:20:43;;;;;;;3.47;1.92;;;;;;;16.76;100.00;93126.19;2120811;27;20038;-79
2022/07/26 04:21:44;;;;;;;3.13;1.70;;;;;;;16.77;100.00;93129.63;2122006;27;20086;-79
2022/07/26 04:22:45;;;;;;;2.90;1.73;;;;;;;16.78;100.00;93134.59;2106063;28;20031;-79
2022/07/26 04:23:46;;;;;;;1.75;1.50;;;;;;;16.79;100.00;93133.38;2107248;28;20023;-78
2022/07/26 04:24:47;;;;;;;3.63;2.00;;;;;;;16.83;100.00;93135.94;2121181;27;20015;-79
2022/07/26 04:25:48;;;;;;;1.90;1.60;;;;;;;16.84;100.00;93132.78;2106093;28;20032;-79
2022/07/26 04:26:49;;;;;;;1.85;1.75;;;;;;;16.84;100.00;93134.72;2105938;28;20032;-78
2022/07/26 04:27:50;;;;;;;3.00;1.67;;;;;;;16.85;100.00;93139.66;2111975;28;20024;-78
2022/07/26 04:28:51;;;;;;;2.40;1.95;;;;;;;16.90;100.00;93137.56;2102431;28;20047;-79
2022/07/26 04:29:52;;;;;;;1.70;1.60;;;;;;;16.88;100.00;93140.72;2110086;27;20031;-79
2022/07/26 04:30:57;;;;;;;4.07;1.90;;;;;;;16.83;100.00;93136.69;2105635;28;20028;-78
2022/07/26 04:31:58;;;;;;;3.38;1.60;;;;;;;16.91;100.00;93139.81;2107360;27;20024;-79
2022/07/26 04:32:59;;;;;;;5.38;1.73;;;;;;;16.94;100.00;93141.59;2107643;28;20045;-79
2022/07/26 04:34:00;;;;;;;3.90;1.65;;;;;;;16.94;100.00;93138.88;2106063;28;20081;-80
2022/07/26 04:35:01;;;;;;;4.00;2.10;;;;;;;16.97;100.00;93135.28;2122745;27;20023;-79
2022/07/26 04:36:02;;;;;;;2.17;1.80;;;;;;;16.94;100.00;93141.59;2121385;27;20068;-78
2022/07/26 04:37:04;;;;;;;2.70;1.90;;;;;;;16.89;100.00;93138.75;2103913;28;20023;-79
2022/07/26 04:38:05;;;;;;;4.15;1.65;;;;;;;16.86;100.00;93137.72;2103668;28;20434;-79
2022/07/26 04:39:06;;;;;;;3.50;1.67;;;;;;;16.92;100.00;93138.59;2113027;28;20085;-79
2022/07/26 04:40:07;;;;;;;2.92;1.60;;;;;;;16.87;100.00;93136.53;2104791;28;20027;-79
2022/07/26 04:41:09;;;;;;;7.28;2.40;;;;;;;16.84;100.00;93127.38;2105920;28;20063;-79
2022/07/26 04:42:10;;;;;;;3.80;1.85;;;;;;;16.86;100.00;93124.22;2112516;27;20475;-79
2022/07/26 04:43:11;;;;;;;3.92;1.80;;;;;;;16.86;100.00;93119.56;2118652;27;20684;-79
2022/07/26 04:44:12;;;;;;;3.85;2.03;;;;;;;16.88;100.00;93121.06;2105186;28;20013;-79
2022/07/26 04:45:13;;;;;;;3.25;1.90;;;;;;;16.87;100.00;93125.72;2098734;28;20056;-79
2022/07/26 04:46:14;;;;;;;3.90;2.10;;;;;;;16.86;100.00;93129.63;2113367;28;20035;-79
2022/07/26 04:47:15;;;;;;;6.18;2.13;;;;;;;16.92;100.00;93130.50;2106059;28;20028;-78
2022/07/26 04:48:16;;;;;;;2.85;1.80;;;;;;;16.90;100.00;93130.22;2114072;28;20027;-79
2022/07/26 04:49:17;;;;;;;2.65;1.90;;;;;;;16.76;100.00;93125.44;2114217;28;20110;-79
2022/07/26 04:50:19;;;;;;;2.75;1.67;;;;;;;16.75;100.00;93126.66;2105748;28;20797;-78
2022/07/26 04:51:20;;;;;;;4.97;1.60;;;;;;;16.72;100.00;93120.22;2104794;28;20066;-79